createdAt,value
2017-06-10T00:00:07.963Z,16.08
2017-06-10T00:02:34.763Z,15.21
2017-06-10T00:05:02.243Z,14.34
2017-06-10T00:07:31.623Z,14.85
2017-06-10T00:10:03.649Z,14.22
2017-06-10T00:12:30.298Z,14.67
2017-06-10T00:14:57.386Z,13.76
2017-06-10T00:17:29.953Z,14.31
2017-06-10T00:20:03.005Z,13.29
2017-06-10T00:22:34.513Z,14.85
2017-06-10T00:25:01.023Z,13.90
2017-06-10T00:27:27.753Z,13.71
2017-06-10T00:29:54.301Z,13.39
2017-06-10T00:32:25.988Z,13.32
2017-06-10T00:34:53.361Z,14.51
2017-06-10T00:37:19.814Z,15.59
2017-06-10T00:39:46.274Z,15.57
2017-06-10T00:42:12.712Z,13.83
2017-06-10T00:44:39.323Z,14.30
2017-06-10T00:47:06.136Z,14.46
2017-06-10T00:49:38.291Z,14.39
2017-06-10T00:52:10.048Z,15.00
2017-06-10T00:54:36.553Z,14.94
2017-06-10T00:57:03.601Z,15.29
2017-06-10T00:59:41.044Z,14.21
2017-06-10T01:02:07.384Z,13.56
2017-06-10T01:04:33.983Z,15.05
2017-06-10T01:07:06.405Z,14.25
2017-06-10T01:09:32.733Z,13.41
2017-06-10T01:11:59.733Z,13.23
2017-06-10T01:14:28.268Z,12.65
2017-06-10T01:16:55.720Z,12.66
2017-06-10T01:19:22.305Z,13.13
2017-06-10T01:21:52.289Z,13.07
2017-06-10T01:24:19.519Z,13.26
2017-06-10T01:26:51.191Z,12.62
2017-06-10T01:29:23.783Z,12.65
2017-06-10T01:31:55.751Z,12.82
2017-06-10T01:34:23.059Z,14.37
2017-06-10T01:36:49.590Z,14.78
2017-06-10T01:39:16.264Z,13.66
2017-06-10T01:41:48.073Z,12.89
2017-06-10T01:44:18.617Z,12.61
2017-06-10T01:46:45.008Z,12.71
2017-06-10T01:49:12.336Z,14.06
2017-06-10T01:51:41.792Z,14.44
2017-06-10T01:54:13.485Z,14.43
2017-06-10T01:56:44.990Z,13.99
2017-06-10T01:59:11.571Z,12.80
2017-06-10T02:01:38.066Z,12.57
2017-06-10T02:04:04.496Z,13.17
2017-06-10T02:06:31.702Z,12.72
2017-06-10T02:08:58.279Z,13.30
2017-06-10T02:11:24.700Z,12.82
2017-06-10T02:13:51.456Z,12.57
2017-06-10T02:16:18.027Z,12.43
2017-06-10T02:18:49.600Z,12.35
2017-06-10T02:21:16.052Z,12.00
2017-06-10T02:23:43.054Z,11.78
2017-06-10T02:26:10.151Z,12.04
2017-06-10T02:28:37.158Z,12.09
2017-06-10T02:31:03.814Z,13.30
2017-06-10T02:33:30.596Z,12.83
2017-06-10T02:35:57.151Z,11.91
2017-06-10T02:38:23.646Z,11.95
2017-06-10T02:40:50.140Z,12.67
2017-06-10T02:43:16.557Z,12.18
2017-06-10T02:45:43.856Z,12.30
2017-06-10T02:48:10.363Z,12.31
2017-06-10T02:50:36.785Z,12.75
2017-06-10T02:53:04.278Z,11.59
2017-06-10T02:55:34.558Z,11.83
2017-06-10T02:58:04.265Z,11.99
2017-06-10T03:00:30.642Z,11.90
2017-06-10T03:02:56.975Z,12.33
2017-06-10T03:05:23.480Z,11.93
2017-06-10T03:07:49.998Z,11.75
2017-06-10T03:10:22.725Z,11.22
2017-06-10T03:12:50.180Z,11.25
2017-06-10T03:15:17.624Z,11.94
2017-06-10T03:17:44.389Z,12.44
2017-06-10T03:20:11.335Z,12.20
2017-06-10T03:22:38.829Z,11.63
2017-06-10T03:25:05.241Z,11.24
2017-06-10T03:27:33.531Z,11.55
2017-06-10T03:29:59.884Z,11.24
2017-06-10T03:32:31.763Z,11.95
2017-06-10T03:34:58.411Z,13.19
2017-06-10T03:37:25.495Z,13.11
2017-06-10T03:39:51.831Z,13.47
2017-06-10T03:42:18.253Z,13.07
2017-06-10T03:44:45.193Z,12.34
2017-06-10T03:47:11.625Z,11.52
2017-06-10T03:49:38.042Z,11.57
2017-06-10T03:52:04.447Z,11.78
2017-06-10T03:54:30.759Z,11.71
2017-06-10T03:56:57.091Z,11.98
2017-06-10T03:59:23.459Z,12.07
2017-06-10T04:01:49.996Z,12.45
2017-06-10T04:04:16.341Z,13.03
2017-06-10T04:06:42.690Z,12.15
2017-06-10T04:09:09.029Z,12.36
2017-06-10T04:11:35.395Z,11.90
2017-06-10T04:14:01.756Z,11.46
2017-06-10T04:16:28.084Z,11.70
2017-06-10T04:18:54.420Z,12.25
2017-06-10T04:21:20.744Z,12.86
2017-06-10T04:23:47.083Z,13.00
2017-06-10T04:26:13.414Z,12.47
2017-06-10T04:28:39.775Z,12.26
2017-06-10T04:31:06.120Z,12.13
2017-06-10T04:33:32.472Z,12.73
2017-06-10T04:35:58.800Z,12.40
2017-06-10T04:38:25.173Z,12.64
2017-06-10T04:40:51.538Z,12.92
2017-06-10T04:43:17.859Z,12.82
2017-06-10T04:45:44.211Z,12.75
2017-06-10T04:48:10.552Z,12.52
2017-06-10T04:50:36.893Z,12.99
2017-06-10T04:53:03.906Z,13.46
2017-06-10T04:55:30.276Z,13.83
2017-06-10T04:58:01.057Z,13.50
2017-06-10T05:00:27.570Z,13.87
2017-06-10T05:02:53.935Z,13.79
2017-06-10T05:05:21.006Z,14.12
2017-06-10T05:07:47.353Z,13.57
2017-06-10T05:10:13.690Z,14.38
2017-06-10T05:12:40.026Z,14.43
2017-06-10T05:15:06.366Z,14.42
2017-06-10T05:17:32.683Z,14.41
2017-06-10T05:19:59.021Z,14.18
2017-06-10T05:22:25.380Z,13.78
2017-06-10T05:24:51.776Z,14.43
2017-06-10T05:27:18.122Z,14.62
2017-06-10T05:29:44.466Z,14.31
2017-06-10T05:32:10.795Z,14.20
2017-06-10T05:34:37.204Z,14.35
2017-06-10T05:37:03.581Z,14.44
2017-06-10T05:39:29.898Z,14.35
2017-06-10T05:41:56.240Z,14.67
2017-06-10T05:44:22.639Z,14.57
2017-06-10T05:46:49.000Z,14.36
2017-06-10T05:49:15.353Z,14.56
2017-06-10T05:51:41.733Z,14.42
2017-06-10T05:54:08.097Z,14.50
2017-06-10T05:56:34.431Z,14.55
2017-06-10T05:59:00.779Z,14.54
2017-06-10T06:01:27.158Z,14.65
2017-06-10T06:03:53.461Z,14.83
2017-06-10T06:06:19.809Z,14.68
2017-06-10T06:08:46.145Z,14.91
2017-06-10T06:11:12.498Z,14.75
2017-06-10T06:13:38.848Z,14.68
2017-06-10T06:16:05.174Z,14.80
2017-06-10T06:18:31.505Z,14.88
2017-06-10T06:20:57.854Z,14.98
2017-06-10T06:23:24.241Z,15.12
2017-06-10T06:25:50.579Z,15.08
2017-06-10T06:28:16.933Z,15.09
2017-06-10T06:30:43.288Z,15.16
2017-06-10T06:33:09.600Z,15.06
2017-06-10T06:35:35.923Z,15.23
2017-06-10T06:38:02.250Z,15.21
2017-06-10T06:40:28.610Z,15.22
2017-06-10T06:42:54.966Z,15.31
2017-06-10T06:45:21.324Z,15.38
2017-06-10T06:47:47.671Z,15.30
2017-06-10T06:50:14.019Z,15.38
2017-06-10T06:52:40.411Z,15.44
2017-06-10T06:55:06.747Z,15.49
2017-06-10T06:57:33.085Z,15.75
2017-06-10T06:59:59.464Z,15.82
2017-06-10T07:02:25.791Z,15.86
2017-06-10T07:04:52.129Z,15.96
2017-06-10T07:07:18.526Z,15.88
2017-06-10T07:09:44.862Z,15.82
2017-06-10T07:12:11.190Z,16.28
2017-06-10T07:14:37.524Z,16.26
2017-06-10T07:17:03.881Z,16.23
2017-06-10T07:19:30.213Z,16.25
2017-06-10T07:21:56.548Z,16.18
2017-06-10T07:24:22.908Z,16.64
2017-06-10T07:26:49.263Z,16.66
2017-06-10T07:29:15.632Z,16.48
2017-06-10T07:31:41.973Z,17.08
2017-06-10T07:34:08.311Z,16.79
2017-06-10T07:36:34.725Z,17.14
2017-06-10T07:39:01.056Z,17.22
2017-06-10T07:41:27.382Z,16.95
2017-06-10T07:43:53.710Z,17.74
2017-06-10T07:46:20.125Z,18.08
2017-06-10T07:48:46.625Z,18.00
2017-06-10T07:51:13.101Z,17.88
2017-06-10T07:53:39.431Z,18.22
2017-06-10T07:56:05.750Z,17.72
2017-06-10T07:58:32.097Z,18.11
2017-06-10T08:00:58.434Z,17.99
2017-06-10T08:03:24.777Z,18.18
2017-06-10T08:05:51.112Z,18.55
2017-06-10T08:08:17.438Z,18.57
2017-06-10T08:13:01.557Z,18.52
2017-06-10T08:15:27.917Z,18.13
2017-06-10T08:17:54.248Z,18.29
2017-06-10T08:20:20.593Z,18.59
2017-06-10T08:22:46.914Z,18.58
2017-06-10T08:25:13.232Z,19.08
2017-06-10T08:27:39.606Z,19.42
2017-06-10T08:30:05.954Z,19.11
2017-06-10T08:32:33.040Z,19.29
2017-06-10T08:34:59.370Z,19.29
2017-06-10T08:37:25.740Z,19.56
2017-06-10T08:39:52.090Z,19.84
2017-06-10T08:42:18.410Z,20.20
2017-06-10T08:44:44.729Z,19.83
2017-06-10T08:47:11.062Z,19.95
2017-06-10T08:49:37.431Z,19.98
2017-06-10T08:52:03.754Z,19.98
2017-06-10T08:54:30.082Z,20.09
2017-06-10T08:56:56.454Z,20.45
2017-06-10T08:59:22.801Z,20.48
2017-06-10T09:01:49.132Z,20.56
2017-06-10T09:04:15.469Z,20.61
2017-06-10T09:06:41.817Z,21.07
2017-06-10T09:09:08.169Z,21.14
2017-06-10T09:11:34.513Z,21.48
2017-06-10T09:14:00.865Z,20.69
2017-06-10T09:16:28.159Z,21.25
2017-06-10T09:18:54.482Z,21.11
2017-06-10T09:21:20.824Z,21.70
2017-06-10T09:23:47.161Z,21.41
2017-06-10T09:26:13.519Z,21.19
2017-06-10T09:28:39.859Z,20.82
2017-06-10T09:31:06.209Z,21.52
2017-06-10T09:33:32.567Z,21.50
2017-06-10T09:35:58.922Z,21.52
2017-06-10T09:38:25.251Z,21.80
2017-06-10T09:40:51.599Z,22.26
2017-06-10T09:43:17.935Z,22.03
2017-06-10T09:45:44.270Z,22.51
2017-06-10T09:48:10.601Z,22.26
2017-06-10T09:50:36.939Z,22.37
2017-06-10T09:53:03.303Z,22.52
2017-06-10T09:55:29.713Z,22.94
2017-06-10T09:57:56.058Z,22.89
2017-06-10T10:00:22.369Z,22.87
2017-06-10T10:02:48.721Z,22.83
2017-06-10T10:05:15.065Z,22.45
2017-06-10T10:07:41.449Z,22.93
2017-06-10T10:10:07.796Z,22.98
2017-06-10T10:12:34.138Z,22.41
2017-06-10T10:15:00.485Z,22.82
2017-06-10T10:17:26.837Z,23.30
2017-06-10T10:19:53.168Z,22.83
2017-06-10T10:22:19.633Z,23.47
2017-06-10T10:24:45.982Z,23.66
2017-06-10T10:27:12.321Z,23.69
2017-06-10T10:29:38.691Z,23.35
2017-06-10T10:32:05.157Z,23.50
2017-06-10T10:34:31.490Z,24.56
2017-06-10T10:36:57.838Z,23.58
2017-06-10T10:39:24.158Z,23.62
2017-06-10T10:41:50.629Z,23.38
2017-06-10T10:44:16.947Z,23.29
2017-06-10T10:46:43.305Z,22.71
2017-06-10T10:49:09.621Z,23.34
2017-06-10T10:51:36.057Z,23.06
2017-06-10T10:54:02.407Z,22.86
2017-06-10T10:56:28.719Z,23.41
2017-06-10T10:58:55.173Z,22.68
2017-06-10T11:01:22.288Z,23.36
2017-06-10T11:03:48.682Z,22.53
2017-06-10T11:06:15.295Z,22.91
2017-06-10T11:08:41.668Z,23.56
2017-06-10T11:11:09.298Z,23.01
2017-06-10T11:13:36.717Z,22.46
2017-06-10T11:16:03.627Z,23.29
2017-06-10T11:18:29.997Z,24.01
2017-06-10T11:20:56.338Z,23.62
2017-06-10T11:23:22.694Z,23.69
2017-06-10T11:25:49.086Z,23.80
2017-06-10T11:28:15.455Z,23.85
2017-06-10T11:30:41.870Z,23.61
2017-06-10T11:33:08.208Z,24.40
2017-06-10T11:35:34.558Z,24.97
2017-06-10T11:38:00.938Z,24.83
2017-06-10T11:40:27.355Z,24.77
2017-06-10T11:42:53.768Z,24.92
2017-06-10T11:45:20.142Z,24.20
2017-06-10T11:47:46.497Z,24.88
2017-06-10T11:50:12.850Z,24.87
2017-06-10T11:52:39.182Z,24.52
2017-06-10T11:55:05.576Z,23.68
2017-06-10T11:57:31.991Z,24.20
2017-06-10T11:59:58.362Z,24.20
2017-06-10T12:02:24.708Z,24.18
2017-06-10T12:04:51.072Z,24.15
2017-06-10T12:07:17.599Z,24.82
2017-06-10T12:09:45.579Z,24.17
2017-06-10T12:12:12.173Z,24.22
2017-06-10T12:14:38.932Z,24.26
2017-06-10T12:17:05.325Z,23.96
2017-06-10T12:19:31.966Z,24.41
2017-06-10T12:21:58.497Z,24.14
2017-06-10T12:24:24.942Z,25.44
2017-06-10T12:26:51.512Z,25.45
2017-06-10T12:29:17.906Z,25.61
2017-06-10T12:31:44.564Z,26.06
2017-06-10T12:34:11.021Z,25.88
2017-06-10T12:36:37.368Z,24.51
2017-06-10T12:39:03.854Z,25.69
2017-06-10T12:41:30.215Z,26.22
2017-06-10T12:43:56.524Z,25.64
2017-06-10T12:46:22.990Z,25.41
2017-06-10T12:48:49.810Z,24.69
2017-06-10T12:51:16.124Z,25.03
2017-06-10T12:53:42.455Z,25.01
2017-06-10T12:56:09.069Z,25.63
2017-06-10T12:58:35.473Z,25.19
2017-06-10T13:01:02.290Z,25.22
2017-06-10T13:03:28.692Z,25.30
2017-06-10T13:05:55.002Z,26.17
2017-06-10T13:08:21.369Z,26.75
2017-06-10T13:10:47.705Z,27.45
2017-06-10T13:13:14.053Z,26.53
2017-06-10T13:15:40.362Z,26.61
2017-06-10T13:18:06.687Z,27.70
2017-06-10T13:20:33.153Z,27.29
2017-06-10T13:22:59.524Z,26.93
2017-06-10T13:25:25.848Z,27.68
2017-06-10T13:27:52.179Z,27.34
2017-06-10T13:30:18.514Z,27.48
2017-06-10T13:32:44.875Z,28.06
2017-06-10T13:35:11.194Z,27.97
2017-06-10T13:37:37.549Z,28.09
2017-06-10T13:40:03.954Z,28.21
2017-06-10T13:42:30.346Z,27.11
2017-06-10T13:44:56.694Z,26.83
2017-06-10T13:47:23.069Z,27.61
2017-06-10T13:49:49.521Z,28.00
2017-06-10T13:52:15.877Z,27.62
2017-06-10T13:54:42.220Z,27.76
2017-06-10T13:57:08.562Z,28.13
2017-06-10T13:59:34.965Z,27.84
2017-06-10T14:02:01.396Z,27.26
2017-06-10T14:04:27.740Z,27.75
2017-06-10T14:06:54.101Z,27.82
2017-06-10T14:09:20.475Z,28.61
2017-06-10T14:11:46.854Z,28.68
2017-06-10T14:14:13.232Z,28.94
2017-06-10T14:16:39.604Z,28.47
2017-06-10T14:19:05.944Z,28.03
2017-06-10T14:21:32.353Z,28.00
2017-06-10T14:23:58.697Z,28.08
2017-06-10T14:26:25.071Z,28.99
2017-06-10T14:28:51.427Z,28.89
2017-06-10T14:31:17.807Z,27.84
2017-06-10T14:33:44.163Z,28.63
2017-06-10T14:36:10.584Z,27.52
2017-06-10T14:38:36.930Z,27.89
2017-06-10T14:41:03.273Z,28.19
2017-06-10T14:43:29.627Z,28.00
2017-06-10T14:45:55.984Z,27.38
2017-06-10T14:48:22.333Z,28.07
2017-06-10T14:50:49.325Z,28.59
2017-06-10T14:53:15.694Z,28.70
2017-06-10T14:55:42.161Z,29.29
2017-06-10T14:58:08.506Z,29.28
2017-06-10T15:00:34.909Z,29.30
2017-06-10T15:03:01.679Z,28.83
2017-06-10T15:05:28.617Z,28.56
2017-06-10T15:07:54.995Z,29.25
2017-06-10T15:10:21.533Z,28.04
2017-06-10T15:12:48.250Z,29.04
2017-06-10T15:15:19.322Z,28.75
2017-06-10T15:17:45.643Z,28.56
2017-06-10T15:20:12.089Z,28.93
2017-06-10T15:22:38.432Z,28.36
2017-06-10T15:25:04.762Z,28.56
2017-06-10T15:27:31.143Z,28.75
2017-06-10T15:29:57.486Z,28.88
2017-06-10T15:32:23.828Z,28.41
2017-06-10T15:34:50.169Z,27.29
2017-06-10T15:37:16.501Z,28.35
2017-06-10T15:39:42.855Z,28.58
2017-06-10T15:42:09.213Z,28.70
2017-06-10T15:44:35.570Z,28.53
2017-06-10T15:47:01.942Z,28.51
2017-06-10T15:49:28.280Z,28.82
2017-06-10T15:51:54.602Z,28.22
2017-06-10T15:54:20.962Z,28.63
2017-06-10T15:56:47.319Z,28.43
2017-06-10T15:59:13.634Z,28.47
2017-06-10T16:01:40.010Z,29.19
2017-06-10T16:04:06.360Z,29.36
2017-06-10T16:06:32.711Z,28.59
2017-06-10T16:08:59.061Z,29.30
2017-06-10T16:11:25.442Z,29.40
2017-06-10T16:13:51.838Z,29.15
2017-06-10T16:16:18.275Z,29.05
2017-06-10T16:18:44.623Z,28.41
2017-06-10T16:21:10.955Z,27.99
2017-06-10T16:23:37.301Z,28.35
2017-06-10T16:26:03.642Z,27.82
2017-06-10T16:28:30.007Z,27.58
2017-06-10T16:30:56.329Z,28.49
2017-06-10T16:33:22.688Z,28.80
2017-06-10T16:35:49.009Z,28.61
2017-06-10T16:38:15.349Z,29.27
2017-06-10T16:40:41.691Z,29.12
2017-06-10T16:43:08.139Z,29.27
2017-06-10T16:45:34.468Z,29.06
2017-06-10T16:48:00.804Z,28.99
2017-06-10T16:50:27.161Z,29.16
2017-06-10T16:52:53.599Z,29.36
2017-06-10T16:55:19.949Z,29.12
2017-06-10T17:06:33.332Z,27.98
2017-06-10T17:11:36.649Z,28.84
2017-06-10T17:14:03.077Z,29.22
2017-06-10T17:16:29.402Z,28.78
2017-06-10T17:18:55.753Z,28.95
2017-06-10T17:21:22.099Z,28.80
2017-06-10T17:23:48.473Z,28.53
2017-06-10T17:26:14.802Z,28.56
2017-06-10T17:28:41.133Z,28.30
2017-06-10T17:31:07.477Z,28.21
2017-06-10T17:33:33.809Z,28.31
2017-06-10T17:36:00.170Z,28.10
2017-06-10T17:38:26.534Z,27.78
2017-06-10T17:40:52.878Z,27.94
2017-06-10T17:43:19.236Z,27.85
2017-06-10T17:45:45.582Z,27.17
2017-06-10T17:48:11.979Z,27.20
2017-06-10T17:50:38.358Z,27.12
2017-06-10T17:53:04.702Z,27.11
2017-06-10T17:55:31.077Z,26.96
2017-06-10T17:57:57.477Z,26.97
2017-06-10T18:00:23.823Z,26.57
2017-06-10T18:02:50.196Z,26.85
2017-06-10T18:05:16.533Z,26.78
2017-06-10T18:07:49.147Z,26.58
2017-06-10T18:10:15.458Z,26.35
2017-06-10T18:12:41.783Z,26.43
2017-06-10T18:15:08.126Z,26.27
2017-06-10T18:17:34.542Z,26.32
2017-06-10T18:20:00.983Z,26.19
2017-06-10T18:22:27.402Z,26.21
2017-06-10T18:24:53.817Z,25.87
2017-06-10T18:27:20.200Z,25.76
2017-06-10T18:29:46.567Z,25.79
2017-06-10T18:32:12.962Z,25.65
2017-06-10T18:34:39.306Z,25.62
2017-06-10T18:37:05.643Z,25.54
2017-06-10T18:39:31.977Z,25.42
2017-06-10T18:41:58.328Z,25.24
2017-06-10T18:44:24.727Z,25.24
2017-06-10T18:46:51.042Z,24.94
2017-06-10T18:49:17.358Z,25.01
2017-06-10T18:51:43.662Z,24.94
2017-06-10T18:54:09.998Z,24.82
2017-06-10T18:56:36.432Z,24.74
2017-06-10T18:59:02.855Z,24.34
2017-06-10T19:01:29.204Z,24.25
2017-06-10T19:03:55.523Z,24.26
2017-06-10T19:06:28.562Z,24.33
2017-06-10T19:09:01.613Z,24.24
2017-06-10T19:11:27.911Z,23.99
2017-06-10T19:13:54.216Z,23.91
2017-06-10T19:16:20.545Z,23.96
2017-06-10T19:18:46.885Z,23.65
2017-06-10T19:21:13.215Z,23.66
2017-06-10T19:23:39.552Z,23.67
2017-06-10T19:26:05.873Z,23.71
2017-06-10T19:28:32.220Z,23.63
2017-06-10T19:30:58.579Z,23.45
2017-06-10T19:33:24.920Z,23.38
2017-06-10T19:35:51.253Z,23.25
2017-06-10T19:38:17.600Z,23.00
2017-06-10T19:40:43.998Z,22.89
2017-06-10T19:43:10.339Z,22.89
2017-06-10T19:45:36.689Z,22.91
2017-06-10T19:48:03.041Z,23.05
2017-06-10T19:50:29.372Z,22.92
2017-06-10T19:52:55.714Z,22.96
2017-06-10T19:55:22.082Z,22.75
2017-06-10T19:57:48.409Z,22.60
2017-06-10T20:00:14.741Z,22.29
2017-06-10T20:02:41.071Z,22.08
2017-06-10T20:05:07.423Z,22.16
2017-06-10T20:07:33.752Z,22.46
2017-06-10T20:10:00.087Z,22.54
2017-06-10T20:12:26.450Z,22.42
2017-06-10T20:14:53.966Z,22.42
2017-06-10T20:17:20.320Z,22.16
2017-06-10T20:19:46.666Z,22.24
2017-06-10T20:22:13.004Z,22.14
2017-06-10T20:24:39.351Z,21.81
2017-06-10T20:27:05.709Z,21.54
2017-06-10T20:29:32.020Z,21.35
2017-06-10T20:31:58.350Z,21.36
2017-06-10T20:34:24.719Z,21.44
2017-06-10T20:36:51.074Z,21.27
2017-06-10T20:39:17.469Z,21.44
2017-06-10T20:41:43.843Z,21.37
2017-06-10T20:44:10.191Z,21.46
2017-06-10T20:46:36.576Z,21.62
2017-06-10T20:49:02.926Z,21.52
2017-06-10T20:51:29.277Z,21.52
2017-06-10T20:53:55.629Z,21.36
2017-06-10T20:56:21.993Z,21.06
2017-06-10T20:58:48.428Z,20.77
2017-06-10T21:01:14.777Z,20.83
2017-06-10T21:03:41.110Z,20.73
2017-06-10T21:06:07.471Z,21.05
2017-06-10T21:08:33.827Z,21.03
2017-06-10T21:11:00.178Z,20.79
2017-06-10T21:13:26.513Z,20.78
2017-06-10T21:15:52.827Z,20.86
2017-06-10T21:18:19.186Z,20.72
2017-06-10T21:20:45.508Z,20.72
2017-06-10T21:23:11.845Z,20.55
2017-06-10T21:25:38.197Z,20.43
2017-06-10T21:28:04.576Z,20.54
2017-06-10T21:30:30.925Z,20.73
2017-06-10T21:32:57.254Z,20.78
2017-06-10T21:35:23.649Z,20.72
2017-06-10T21:37:50.060Z,20.66
2017-06-10T21:40:16.385Z,20.62
2017-06-10T21:42:42.856Z,20.36
2017-06-10T21:45:09.227Z,20.03
2017-06-10T21:47:35.600Z,20.01
2017-06-10T21:50:02.033Z,19.92
2017-06-10T21:52:28.360Z,20.18
2017-06-10T21:54:54.704Z,20.10
2017-06-10T21:57:21.030Z,20.05
2017-06-10T21:59:47.379Z,19.93
2017-06-10T22:02:13.697Z,20.07
2017-06-10T22:04:40.110Z,20.07
2017-06-10T22:07:06.419Z,20.05
2017-06-10T22:09:32.747Z,19.92
2017-06-10T22:11:59.133Z,19.97
2017-06-10T22:14:25.461Z,19.83
2017-06-10T22:16:51.838Z,19.81
2017-06-10T22:19:18.158Z,19.85
2017-06-10T22:21:44.577Z,19.65
2017-06-10T22:24:10.908Z,19.70
2017-06-10T22:26:37.245Z,19.71
2017-06-10T22:29:03.583Z,19.59
2017-06-10T22:31:29.929Z,19.60
2017-06-10T22:33:56.283Z,19.65
2017-06-10T22:36:22.616Z,19.55
2017-06-10T22:38:48.975Z,19.55
2017-06-10T22:41:15.355Z,19.45
2017-06-10T22:43:41.692Z,19.39
2017-06-10T22:46:08.029Z,19.42
2017-06-10T22:48:34.364Z,19.30
2017-06-10T22:51:00.696Z,19.37
2017-06-10T22:53:27.078Z,19.40
2017-06-10T22:55:53.402Z,19.38
2017-06-10T22:58:19.850Z,19.21
2017-06-10T23:00:46.211Z,19.32
2017-06-10T23:03:12.609Z,19.25
2017-06-10T23:05:38.942Z,19.24
2017-06-10T23:08:05.274Z,19.38
2017-06-10T23:10:31.770Z,19.28
2017-06-10T23:12:58.100Z,19.20
2017-06-10T23:15:24.431Z,19.22
2017-06-10T23:17:50.757Z,19.23
2017-06-10T23:20:17.099Z,19.15
2017-06-10T23:22:43.459Z,19.20
2017-06-10T23:25:09.830Z,19.07
2017-06-10T23:27:36.183Z,19.07
2017-06-10T23:30:02.517Z,19.07
2017-06-10T23:32:28.857Z,19.00
2017-06-10T23:34:55.188Z,18.96
2017-06-10T23:37:21.532Z,18.89
2017-06-10T23:39:47.860Z,18.77
2017-06-10T23:42:14.179Z,18.80
2017-06-10T23:44:40.526Z,18.78
2017-06-10T23:47:06.889Z,18.77
2017-06-10T23:49:33.230Z,18.74
2017-06-10T23:51:59.572Z,18.66
2017-06-10T23:54:25.927Z,18.59
2017-06-10T23:56:52.330Z,18.74
2017-06-10T23:59:18.672Z,18.74
